Time;durP1;ratioP1;P1;durP2;ratioP2;P2;SDS_P1;SDS_P2;PMS_P1;PMS_P2;Temp;Humidity;BMP_temperature;BMP_pressure;BME280_temperature;BME280_humidity;BME280_pressure;Samples;Min_cycle;Max_cycle;Signal;HPM_P1;HPM_P2
2022/10/16 00:01:12;;;;;;;3.55;2.08;;;17.10;76.20;;;;;;5075221;28;20017;-59
2022/10/16 00:03:42;;;;;;;3.25;2.20;;;17.10;76.60;;;;;;5092918;28;20035;-61
2022/10/16 00:06:08;;;;;;;4.28;1.88;;;17.10;76.60;;;;;;5074354;28;20049;-59
2022/10/16 00:08:37;;;;;;;4.70;2.05;;;17.10;76.50;;;;;;5092285;28;20017;-60
2022/10/16 00:11:12;;;;;;;3.88;1.95;;;17.10;76.50;;;;;;5092967;28;20032;-59
2022/10/16 00:13:40;;;;;;;8.23;2.38;;;17.10;76.60;;;;;;5075159;28;20028;-59
2022/10/16 00:16:09;;;;;;;6.45;1.70;;;17.10;76.50;;;;;;5092366;28;20042;-59
2022/10/16 00:18:37;;;;;;;4.35;1.42;;;17.10;76.50;;;;;;5092873;28;20036;-60
2022/10/16 00:21:23;;;;;;;3.95;1.30;;;17.10;76.50;;;;;;5092681;28;20020;-59
2022/10/16 00:23:59;;;;;;;6.20;1.42;;;17.10;76.90;;;;;;5092883;28;20028;-61
2022/10/16 00:26:25;;;;;;;2.25;1.60;;;17.10;76.60;;;;;;5092800;28;20048;-60
2022/10/16 00:28:51;;;;;;;4.20;1.50;;;17.10;76.40;;;;;;5093379;28;20048;-60
2022/10/16 00:31:19;;;;;;;3.20;1.65;;;17.00;76.40;;;;;;5092832;28;20015;-60
2022/10/16 00:33:45;;;;;;;6.47;1.50;;;17.00;76.50;;;;;;5093122;28;20025;-61
2022/10/16 00:36:13;;;;;;;1.70;1.30;;;17.00;76.50;;;;;;5094057;28;20035;-59
2022/10/16 00:38:40;;;;;;;1.85;1.25;;;17.00;76.50;;;;;;5096372;28;20103;-60
2022/10/16 00:41:09;;;;;;;5.18;1.98;;;17.00;76.40;;;;;;5096797;28;20126;-59
2022/10/16 00:43:50;;;;;;;3.38;1.30;;;17.00;76.30;;;;;;5079092;28;20036;-60
2022/10/16 00:46:24;;;;;;;2.20;1.23;;;17.00;76.60;;;;;;5097095;28;20043;-60
2022/10/16 00:49:25;;;;;;;5.55;1.33;;;16.90;76.30;;;;;;5078925;28;20028;-61
2022/10/16 00:51:53;;;;;;;5.50;1.27;;;16.90;76.90;;;;;;4998715;28;20085;-59
2022/10/16 00:54:29;;;;;;;1.58;1.10;;;16.90;76.10;;;;;;4999672;28;20070;-60
2022/10/16 00:56:59;;;;;;;8.30;1.60;;;16.90;76.40;;;;;;4998985;28;20134;-60
2022/10/16 00:59:31;;;;;;;4.97;1.30;;;16.90;76.20;;;;;;5013003;28;20041;-60
2022/10/16 01:01:57;;;;;;;4.90;1.17;;;16.80;76.20;;;;;;5006967;28;20036;-61
2022/10/16 01:04:25;;;;;;;4.70;1.13;;;16.80;76.10;;;;;;4990585;28;20040;-60
2022/10/16 01:07:24;;;;;;;1.38;1.20;;;16.80;76.20;;;;;;5007063;28;20034;-60
2022/10/16 01:10:07;;;;;;;4.45;1.13;;;16.70;76.70;;;;;;4998821;28;20034;-60
2022/10/16 01:12:54;;;;;;;1.58;1.30;;;16.70;76.30;;;;;;5006998;28;20034;-60
2022/10/16 01:16:00;;;;;;;3.25;1.48;;;16.70;76.30;;;;;;5006866;28;20041;-60
2022/10/16 01:18:43;;;;;;;2.75;1.30;;;16.60;76.30;;;;;;4987112;28;20043;-61
2022/10/16 01:21:23;;;;;;;2.83;1.40;;;16.60;76.00;;;;;;4987052;28;20038;-59
2022/10/16 01:24:00;;;;;;;2.03;1.23;;;16.50;75.90;;;;;;4987280;28;20434;-61
2022/10/16 01:27:06;;;;;;;5.72;1.40;;;16.50;76.00;;;;;;5032152;28;20047;-61
2022/10/16 01:29:37;;;;;;;2.80;1.25;;;16.40;76.50;;;;;;5045836;28;20033;-59
2022/10/16 01:32:17;;;;;;;8.98;1.70;;;16.40;76.10;;;;;;5045594;28;20049;-60
2022/10/16 01:35:06;;;;;;;4.10;1.42;;;16.40;76.30;;;;;;5045822;28;20162;-61
2022/10/16 01:37:38;;;;;;;3.20;1.25;;;16.30;76.60;;;;;;5035527;28;20128;-60
2022/10/16 01:40:10;;;;;;;4.47;1.27;;;16.30;76.10;;;;;;5045715;28;20064;-61
2022/10/16 01:42:51;;;;;;;2.47;1.10;;;16.30;75.90;;;;;;5045506;28;20049;-60
2022/10/16 01:45:19;;;;;;;7.35;1.17;;;16.20;75.80;;;;;;5054834;28;20025;-60
2022/10/16 01:47:46;;;;;;;4.93;1.30;;;16.20;75.60;;;;;;5056931;28;20029;-61
2022/10/16 01:50:14;;;;;;;3.60;1.35;;;16.20;75.60;;;;;;5057343;28;20040;-61
2022/10/16 01:52:44;;;;;;;3.92;1.27;;;16.10;75.60;;;;;;5030288;28;20057;-60
2022/10/16 01:55:13;;;;;;;7.53;1.10;;;16.10;75.60;;;;;;5056159;28;20048;-59
2022/10/16 01:57:44;;;;;;;8.52;1.52;;;16.00;75.50;;;;;;5049741;28;20080;-59
2022/10/16 02:00:12;;;;;;;5.53;1.38;;;16.00;75.60;;;;;;5067491;28;20017;-59
2022/10/16 02:02:42;;;;;;;10.48;1.58;;;15.90;75.60;;;;;;5067402;28;20047;-59
2022/10/16 02:05:18;;;;;;;7.38;1.40;;;15.90;75.70;;;;;;5067629;28;20109;-61
2022/10/16 02:07:44;;;;;;;3.78;1.90;;;15.90;75.70;;;;;;5067482;28;20025;-59
2022/10/16 02:10:10;;;;;;;7.22;2.08;;;15.80;75.50;;;;;;5067285;28;20047;-59
2022/10/16 02:12:40;;;;;;;4.60;1.77;;;15.80;75.70;;;;;;5067457;28;20644;-59
2022/10/16 02:15:07;;;;;;;3.00;1.98;;;15.80;75.90;;;;;;5067008;28;20063;-61
2022/10/16 02:17:33;;;;;;;5.15;1.67;;;15.80;76.00;;;;;;5067250;28;20083;-61
2022/10/16 02:20:00;;;;;;;2.58;1.60;;;15.70;75.90;;;;;;5067208;28;20013;-61
2022/10/16 02:22:36;;;;;;;4.07;1.50;;;15.70;75.90;;;;;;5067098;28;20035;-60
2022/10/16 02:25:05;;;;;;;2.85;1.30;;;15.70;76.00;;;;;;5067117;28;20028;-60
2022/10/16 02:27:55;;;;;;;7.55;1.23;;;15.70;76.10;;;;;;5048915;28;20040;-60
2022/10/16 02:30:47;;;;;;;3.80;1.23;;;15.60;76.30;;;;;;5049155;28;20024;-60
2022/10/16 02:33:16;;;;;;;1.77;1.30;;;15.60;76.20;;;;;;5066898;28;20358;-60
2022/10/16 02:35:44;;;;;;;6.15;1.02;;;15.60;76.10;;;;;;5066956;28;20037;-61
2022/10/16 02:38:11;;;;;;;7.30;1.00;;;15.60;76.20;;;;;;5066687;28;20094;-61
2022/10/16 02:40:37;;;;;;;4.82;1.00;;;15.60;76.40;;;;;;5048775;28;20029;-61
2022/10/16 02:43:04;;;;;;;3.10;1.02;;;15.60;76.40;;;;;;5066562;28;20085;-61
2022/10/16 02:45:31;;;;;;;10.60;1.50;;;15.60;76.60;;;;;;5066614;28;20076;-59
2022/10/16 02:47:57;;;;;;;4.10;1.23;;;15.60;76.70;;;;;;5066718;28;20052;-59
2022/10/16 02:50:24;;;;;;;5.80;1.70;;;15.60;76.70;;;;;;5066694;28;20380;-60
2022/10/16 02:52:50;;;;;;;6.63;1.95;;;15.60;76.80;;;;;;5083832;28;20052;-61
2022/10/16 02:55:16;;;;;;;4.07;1.48;;;15.60;76.80;;;;;;5086524;28;20029;-59
2022/10/16 02:57:42;;;;;;;2.72;1.90;;;15.60;77.00;;;;;;5086299;28;20028;-60
2022/10/16 03:00:11;;;;;;;2.47;1.83;;;15.60;77.00;;;;;;5086155;28;20025;-61
2022/10/16 03:02:37;;;;;;;8.52;1.60;;;15.60;77.00;;;;;;5086557;28;20027;-60
2022/10/16 03:05:02;;;;;;;3.22;1.40;;;15.60;77.00;;;;;;5051695;28;20056;-59
2022/10/16 03:07:28;;;;;;;2.10;1.50;;;15.60;77.00;;;;;;5086262;28;20023;-60
2022/10/16 03:09:55;;;;;;;2.95;2.00;;;15.60;77.10;;;;;;5086700;28;20463;-61
2022/10/16 03:12:21;;;;;;;3.08;1.80;;;15.60;77.20;;;;;;5086080;28;20050;-59
2022/10/16 03:14:47;;;;;;;7.40;1.55;;;15.60;77.20;;;;;;5086246;28;20463;-59
2022/10/16 03:17:13;;;;;;;4.20;1.70;;;15.70;77.30;;;;;;5086249;28;20020;-59
2022/10/16 03:19:38;;;;;;;2.47;1.60;;;15.70;77.30;;;;;;5086099;28;20017;-60
2022/10/16 03:22:04;;;;;;;4.47;1.77;;;15.70;77.30;;;;;;5086203;28;20076;-61
2022/10/16 03:24:30;;;;;;;4.18;1.75;;;15.70;77.30;;;;;;5086085;28;20032;-59
2022/10/16 03:26:55;;;;;;;5.30;1.77;;;15.70;77.10;;;;;;5086017;28;20424;-59
2022/10/16 03:29:21;;;;;;;2.35;1.80;;;15.70;77.30;;;;;;5086222;28;20037;-60
2022/10/16 03:31:49;;;;;;;9.60;1.67;;;15.70;77.30;;;;;;5086032;28;20513;-60
2022/10/16 03:34:15;;;;;;;3.72;1.50;;;15.70;77.30;;;;;;5085930;28;20077;-61
2022/10/16 03:36:41;;;;;;;2.25;1.65;;;15.70;77.30;;;;;;5085938;28;20055;-61
2022/10/16 03:39:07;;;;;;;2.40;1.40;;;15.70;77.40;;;;;;5086004;28;20023;-61
2022/10/16 03:41:32;;;;;;;5.50;1.65;;;15.70;77.30;;;;;;5067916;28;20048;-60
2022/10/16 03:43:58;;;;;;;2.08;1.45;;;15.70;77.00;;;;;;5085943;28;20029;-61
2022/10/16 03:46:24;;;;;;;5.50;1.65;;;15.70;77.10;;;;;;5085811;28;20024;-61
2022/10/16 03:48:50;;;;;;;4.63;1.80;;;15.60;77.10;;;;;;5085834;28;20479;-62
2022/10/16 03:51:15;;;;;;;4.88;1.80;;;15.60;77.80;;;;;;5085651;28;20052;-60
2022/10/16 03:53:41;;;;;;;8.35;1.88;;;15.60;77.40;;;;;;5067923;28;20025;-60
2022/10/16 03:56:07;;;;;;;10.05;1.52;;;15.60;77.50;;;;;;5085643;28;20067;-61
2022/10/16 03:58:32;;;;;;;3.97;1.70;;;15.60;77.60;;;;;;5085772;28;20028;-60
2022/10/16 04:00:58;;;;;;;6.22;1.58;;;15.60;77.70;;;;;;5085927;28;20028;-59
2022/10/16 04:03:24;;;;;;;5.72;1.75;;;15.60;77.60;;;;;;5085690;28;20390;-60
2022/10/16 04:05:49;;;;;;;7.13;1.45;;;15.60;77.60;;;;;;5067615;28;20021;-60
2022/10/16 04:08:15;;;;;;;4.55;1.60;;;15.60;78.20;;;;;;5085838;28;20039;-60
2022/10/16 04:10:44;;;;;;;3.00;1.83;;;15.60;77.40;;;;;;5067361;28;20017;-60
2022/10/16 04:13:11;;;;;;;5.85;1.50;;;15.60;77.50;;;;;;5089385;28;20019;-61
2022/10/16 04:15:37;;;;;;;6.47;1.67;;;15.50;77.30;;;;;;5089484;28;20028;-61
2022/10/16 04:18:04;;;;;;;1.88;1.67;;;15.60;77.40;;;;;;5089324;28;20035;-60
2022/10/16 04:20:29;;;;;;;1.75;1.58;;;15.60;77.40;;;;;;5089637;28;20103;-59
2022/10/16 04:22:56;;;;;;;10.40;2.00;;;15.60;77.40;;;;;;5089347;28;20483;-60
2022/10/16 04:25:22;;;;;;;2.08;1.60;;;15.60;77.40;;;;;;5089096;28;20024;-59
2022/10/16 04:27:47;;;;;;;5.78;2.03;;;15.50;77.40;;;;;;5089347;28;20025;-60
2022/10/16 04:30:13;;;;;;;5.18;1.80;;;15.50;77.60;;;;;;5089152;28;20032;-59
2022/10/16 04:32:40;;;;;;;9.82;2.22;;;15.50;77.70;;;;;;5089166;28;20481;-61
2022/10/16 04:35:06;;;;;;;4.18;1.92;;;15.50;77.70;;;;;;5089174;28;20036;-59
2022/10/16 04:37:32;;;;;;;4.85;1.95;;;15.50;77.70;;;;;;5088940;28;20157;-60
2022/10/16 04:39:57;;;;;;;5.00;2.00;;;15.50;77.70;;;;;;5088974;28;20021;-61
2022/10/16 04:42:23;;;;;;;4.18;2.33;;;15.50;77.70;;;;;;5088944;28;20025;-61
2022/10/16 04:44:49;;;;;;;4.93;2.00;;;15.50;77.80;;;;;;5088887;28;20481;-59
2022/10/16 04:47:15;;;;;;;3.10;1.90;;;15.50;77.80;;;;;;5088938;28;20017;-59
2022/10/16 04:49:40;;;;;;;7.13;2.05;;;15.50;77.80;;;;;;5088844;28;20514;-61
2022/10/16 04:52:06;;;;;;;5.45;2.00;;;15.50;77.90;;;;;;5088760;28;20510;-61
2022/10/16 04:54:32;;;;;;;5.85;2.00;;;15.50;78.00;;;;;;5070604;28;20367;-59
2022/10/16 04:56:57;;;;;;;7.22;2.20;;;15.50;78.10;;;;;;5088749;28;20104;-61
2022/10/16 04:59:23;;;;;;;4.05;1.67;;;15.50;78.10;;;;;;5088869;28;20029;-60
2022/10/16 05:01:49;;;;;;;4.28;2.20;;;15.50;78.10;;;;;;5088514;28;20420;-60
2022/10/16 05:04:15;;;;;;;21.67;2.30;;;15.50;78.10;;;;;;5088550;28;20067;-61
2022/10/16 05:06:42;;;;;;;4.53;1.83;;;15.50;78.10;;;;;;5089189;28;20032;-60
2022/10/16 05:09:08;;;;;;;3.47;1.77;;;15.50;77.90;;;;;;5088536;28;20025;-61
2022/10/16 05:11:34;;;;;;;8.75;2.17;;;15.50;77.70;;;;;;5070434;28;20029;-59
2022/10/16 05:14:00;;;;;;;4.53;2.17;;;15.50;77.70;;;;;;5088344;28;20057;-59
2022/10/16 05:16:26;;;;;;;6.20;2.25;;;15.50;77.60;;;;;;5088259;28;20055;-61
2022/10/16 05:18:52;;;;;;;3.00;2.30;;;15.50;77.60;;;;;;5088478;28;20526;-59
2022/10/16 05:21:18;;;;;;;3.22;2.42;;;15.50;77.60;;;;;;5088278;28;20103;-60
2022/10/16 05:23:44;;;;;;;6.00;2.15;;;15.50;77.50;;;;;;5088056;28;20031;-60
2022/10/16 05:26:10;;;;;;;7.45;2.03;;;15.40;77.40;;;;;;5088406;28;20100;-61
2022/10/16 05:28:36;;;;;;;4.03;2.30;;;15.40;77.40;;;;;;5088121;28;20561;-59
2022/10/16 05:31:09;;;;;;;4.82;2.03;;;15.40;77.40;;;;;;5088045;28;20464;-61
2022/10/16 05:33:35;;;;;;;3.25;1.92;;;15.40;77.50;;;;;;5088268;28;20034;-61
2022/10/16 05:36:05;;;;;;;3.53;2.20;;;15.40;77.40;;;;;;5087703;28;20509;-60
2022/10/16 05:38:31;;;;;;;6.30;2.10;;;15.40;77.50;;;;;;5087973;28;20020;-60
2022/10/16 05:40:57;;;;;;;2.97;1.98;;;15.40;77.40;;;;;;5069966;28;20057;-59
2022/10/16 05:43:23;;;;;;;6.38;1.80;;;15.30;77.40;;;;;;5087777;28;20031;-59
2022/10/16 05:45:57;;;;;;;4.38;1.60;;;15.30;77.50;;;;;;5087935;28;20025;-60
2022/10/16 05:48:23;;;;;;;11.38;1.80;;;15.30;77.70;;;;;;5087711;28;20021;-59
2022/10/16 05:50:55;;;;;;;7.43;2.17;;;15.30;77.50;;;;;;5087336;28;20021;-60
2022/10/16 05:53:25;;;;;;;3.28;1.65;;;15.30;77.60;;;;;;5087769;28;20036;-62
2022/10/16 05:55:54;;;;;;;3.08;1.73;;;15.30;77.60;;;;;;5087712;28;20071;-60
2022/10/16 05:58:21;;;;;;;5.50;1.80;;;15.30;77.70;;;;;;5087565;28;20024;-60
2022/10/16 06:00:54;;;;;;;5.38;1.98;;;15.30;77.60;;;;;;5087482;28;20103;-61
2022/10/16 06:03:20;;;;;;;2.28;1.90;;;15.30;77.90;;;;;;5087696;28;20020;-59
2022/10/16 06:05:46;;;;;;;3.42;1.90;;;15.30;77.70;;;;;;5087357;28;20038;-60
2022/10/16 06:08:12;;;;;;;2.38;2.00;;;15.30;77.90;;;;;;5087279;28;20031;-60
2022/10/16 06:10:37;;;;;;;2.45;1.90;;;15.40;78.10;;;;;;5087445;28;20081;-60
2022/10/16 06:13:03;;;;;;;4.45;2.22;;;15.40;78.20;;;;;;5087237;28;20032;-60
2022/10/16 06:15:29;;;;;;;2.28;1.98;;;15.40;78.30;;;;;;5087193;28;20036;-61
2022/10/16 06:17:54;;;;;;;4.28;2.00;;;15.50;78.40;;;;;;5087126;28;20023;-60
2022/10/16 06:20:20;;;;;;;7.40;2.22;;;15.50;78.40;;;;;;5086986;28;20021;-60
2022/10/16 06:22:46;;;;;;;4.40;2.03;;;15.50;78.50;;;;;;5087334;28;20157;-60
2022/10/16 06:25:12;;;;;;;3.08;2.00;;;15.60;78.70;;;;;;5086996;28;20037;-60
2022/10/16 06:27:40;;;;;;;6.88;2.40;;;15.60;78.80;;;;;;5086954;28;20016;-61
2022/10/16 06:30:07;;;;;;;5.70;2.20;;;15.70;78.80;;;;;;5087103;28;20044;-59
2022/10/16 06:32:32;;;;;;;7.22;2.15;;;15.80;78.80;;;;;;5068900;28;20028;-60
2022/10/16 06:34:58;;;;;;;2.08;1.33;;;15.80;78.70;;;;;;5086192;28;20040;-61
2022/10/16 06:37:24;;;;;;;2.97;1.65;;;15.90;78.50;;;;;;5086957;28;20032;-61
2022/10/16 06:39:52;;;;;;;5.25;1.60;;;15.90;78.20;;;;;;5086589;28;20031;-60
2022/10/16 06:42:18;;;;;;;6.28;1.83;;;16.00;78.20;;;;;;5086966;28;20035;-61
2022/10/16 06:44:44;;;;;;;2.30;1.67;;;16.00;78.10;;;;;;5086696;28;20028;-59
2022/10/16 06:47:10;;;;;;;5.00;1.67;;;16.10;78.10;;;;;;5086519;28;20479;-61
2022/10/16 06:49:35;;;;;;;5.80;2.20;;;16.10;78.10;;;;;;5086629;28;20036;-59
2022/10/16 06:52:01;;;;;;;3.05;2.00;;;16.10;78.00;;;;;;5086433;28;20120;-63
2022/10/16 06:54:27;;;;;;;2.20;1.80;;;16.20;78.10;;;;;;5086361;28;20052;-60
2022/10/16 06:56:54;;;;;;;2.40;2.00;;;16.20;78.00;;;;;;5086703;28;20020;-59
2022/10/16 06:59:20;;;;;;;4.25;2.30;;;16.30;78.10;;;;;;5086370;28;20027;-60
2022/10/16 07:01:46;;;;;;;5.32;2.00;;;16.30;78.20;;;;;;5068501;28;20028;-60
2022/10/16 07:04:12;;;;;;;5.00;2.15;;;16.40;78.20;;;;;;5068190;28;20024;-60
2022/10/16 07:06:38;;;;;;;3.55;2.20;;;16.50;78.10;;;;;;5086192;28;20028;-60
2022/10/16 07:09:07;;;;;;;5.53;2.65;;;16.50;78.00;;;;;;5086310;28;20016;-59
2022/10/16 07:11:33;;;;;;;8.02;2.88;;;16.60;78.00;;;;;;5086132;28;20024;-62
2022/10/16 07:13:59;;;;;;;7.43;2.83;;;16.60;78.00;;;;;;5086143;28;20027;-60
2022/10/16 07:16:27;;;;;;;6.63;3.03;;;16.70;77.80;;;;;;5086418;28;20088;-59
2022/10/16 07:18:58;;;;;;;7.28;3.10;;;16.80;77.90;;;;;;5086190;28;20107;-61
2022/10/16 07:21:28;;;;;;;4.82;3.42;;;16.80;77.70;;;;;;5086040;28;20021;-59
2022/10/16 07:23:56;;;;;;;4.43;3.10;;;16.90;77.60;;;;;;5086243;28;20413;-60
2022/10/16 07:26:22;;;;;;;4.53;2.85;;;16.90;77.50;;;;;;5085930;28;20116;-59
2022/10/16 07:28:49;;;;;;;8.43;2.60;;;17.00;77.50;;;;;;5086019;28;20048;-61
2022/10/16 07:31:16;;;;;;;2.97;1.98;;;17.10;77.60;;;;;;5086286;28;20078;-61
2022/10/16 07:33:44;;;;;;;5.35;1.98;;;17.10;77.40;;;;;;5085940;28;20078;-59
2022/10/16 07:36:18;;;;;;;7.82;2.03;;;17.20;77.30;;;;;;5085599;28;20029;-61
2022/10/16 07:38:44;;;;;;;3.10;1.90;;;17.20;77.10;;;;;;5068234;28;20024;-62
2022/10/16 07:41:13;;;;;;;1.70;1.55;;;17.20;77.10;;;;;;5085884;28;20088;-59
2022/10/16 07:43:39;;;;;;;2.08;1.48;;;17.30;77.10;;;;;;5085827;28;20029;-59
2022/10/16 07:46:05;;;;;;;3.88;1.73;;;17.30;77.10;;;;;;5086352;28;20024;-61
2022/10/16 07:48:33;;;;;;;5.80;2.25;;;17.40;77.00;;;;;;5090121;28;20078;-60
2022/10/16 07:51:01;;;;;;;2.67;2.00;;;17.40;76.80;;;;;;5089685;28;20500;-60
2022/10/16 07:53:27;;;;;;;5.45;2.30;;;17.40;76.70;;;;;;5090150;28;20081;-59
2022/10/16 07:55:57;;;;;;;5.07;2.25;;;17.40;76.50;;;;;;5089804;28;20067;-60
2022/10/16 07:58:23;;;;;;;3.78;2.25;;;17.50;76.60;;;;;;5089850;28;20025;-60
2022/10/16 08:00:48;;;;;;;5.22;2.75;;;17.50;76.50;;;;;;5089893;28;20046;-60
2022/10/16 08:03:14;;;;;;;3.90;2.50;;;17.50;76.40;;;;;;5089550;28;20078;-60
2022/10/16 08:05:40;;;;;;;8.48;2.22;;;17.50;76.40;;;;;;5089928;28;20030;-61
2022/10/16 08:08:05;;;;;;;4.00;2.38;;;17.50;76.30;;;;;;5089753;28;20020;-60
2022/10/16 08:10:31;;;;;;;7.78;2.47;;;17.50;76.30;;;;;;5089603;28;20020;-60
2022/10/16 08:12:58;;;;;;;4.70;2.60;;;17.60;76.50;;;;;;5089706;28;20052;-60
2022/10/16 08:15:24;;;;;;;11.25;2.90;;;17.60;76.50;;;;;;5089469;28;20063;-60
2022/10/16 08:18:00;;;;;;;4.35;2.90;;;17.60;76.30;;;;;;5089193;28;20024;-61
2022/10/16 08:20:27;;;;;;;5.75;2.50;;;17.70;76.40;;;;;;5089624;28;20032;-63
2022/10/16 08:22:54;;;;;;;6.53;2.20;;;17.70;76.40;;;;;;5071328;28;20028;-59
2022/10/16 08:25:21;;;;;;;3.80;2.08;;;17.80;76.40;;;;;;5089257;28;20013;-60
2022/10/16 08:27:46;;;;;;;5.25;2.20;;;17.80;76.30;;;;;;5089354;28;20028;-60
2022/10/16 08:30:13;;;;;;;5.22;2.30;;;17.90;76.30;;;;;;5089109;28;20058;-60
2022/10/16 08:32:39;;;;;;;6.13;2.38;;;17.90;76.10;;;;;;5089448;28;20021;-60
2022/10/16 08:35:05;;;;;;;2.42;2.22;;;18.00;75.90;;;;;;5089197;28;20135;-59
2022/10/16 08:37:32;;;;;;;6.22;2.20;;;18.00;75.50;;;;;;5089254;28;20032;-59
2022/10/16 08:39:58;;;;;;;4.00;2.20;;;18.00;75.20;;;;;;5089360;28;20016;-61
2022/10/16 08:42:34;;;;;;;4.40;2.13;;;18.10;75.30;;;;;;5088942;28;20031;-60
2022/10/16 08:45:35;;;;;;;8.32;2.38;;;18.10;75.40;;;;;;5089044;28;20029;-60
2022/10/16 08:48:15;;;;;;;4.68;2.10;;;18.20;75.50;;;;;;5075378;28;20071;-61
2022/10/16 08:50:41;;;;;;;3.20;2.00;;;18.30;75.60;;;;;;5089695;28;20024;-61
2022/10/16 08:53:13;;;;;;;3.20;1.67;;;18.40;75.70;;;;;;5088651;28;20107;-61
2022/10/16 08:55:49;;;;;;;4.85;2.58;;;18.40;75.50;;;;;;5088838;28;20090;-60
2022/10/16 08:58:20;;;;;;;7.18;4.32;;;18.50;75.50;;;;;;5088395;28;20046;-60
2022/10/16 09:00:53;;;;;;;12.82;9.35;;;18.60;75.40;;;;;;5070553;28;20496;-60
2022/10/16 09:04:03;;;;;;;9.32;6.13;;;18.70;75.30;;;;;;5088691;28;20021;-60
2022/10/16 09:06:45;;;;;;;12.82;2.83;;;18.80;74.90;;;;;;5057294;28;20029;-60
2022/10/16 09:09:17;;;;;;;7.28;2.28;;;18.90;74.80;;;;;;5088434;28;20024;-61
2022/10/16 09:11:54;;;;;;;4.93;2.47;;;18.90;75.00;;;;;;5088356;28;20100;-61
2022/10/16 09:14:37;;;;;;;2.75;2.22;;;19.00;74.70;;;;;;5088300;28;20032;-60
2022/10/16 09:17:12;;;;;;;3.58;1.85;;;19.10;74.60;;;;;;5088454;28;20032;-61
2022/10/16 09:19:40;;;;;;;;;;;19.10;74.30;;;;;;5088858;28;20043;-60
2022/10/16 09:22:16;;;;;;;4.15;1.85;;;19.20;74.50;;;;;;5088043;28;19944;-60
2022/10/16 09:24:42;;;;;;;3.45;1.80;;;19.20;74.40;;;;;;5070123;28;20090;-61
2022/10/16 09:27:17;;;;;;;3.70;2.13;;;19.30;74.40;;;;;;5070543;28;20075;-59
2022/10/16 09:29:43;;;;;;;8.07;5.00;;;19.30;74.00;;;;;;5088283;28;20076;-59
2022/10/16 09:32:17;;;;;;;6.43;3.22;;;19.40;74.40;;;;;;5088153;28;20032;-60
2022/10/16 09:34:47;;;;;;;8.68;2.42;;;19.40;74.30;;;;;;5088177;28;20029;-60
2022/10/16 09:37:17;;;;;;;3.55;2.13;;;19.50;74.60;;;;;;5070228;28;20478;-59
2022/10/16 09:39:47;;;;;;;4.75;2.28;;;19.50;73.70;;;;;;5087965;28;20028;-59
2022/10/16 09:42:35;;;;;;;4.65;2.03;;;19.60;73.00;;;;;;5088109;28;20066;-59
2022/10/16 09:45:02;;;;;;;5.53;2.15;;;19.60;72.40;;;;;;5088194;28;20027;-60
2022/10/16 09:47:30;;;;;;;5.40;2.20;;;19.60;72.80;;;;;;5087897;28;20036;-60
2022/10/16 09:50:19;;;;;;;4.03;2.10;;;19.60;72.60;;;;;;5087633;28;20059;-60
2022/10/16 09:52:45;;;;;;;4.88;1.73;;;19.60;72.70;;;;;;5087749;28;20091;-60
2022/10/16 09:55:17;;;;;;;3.65;1.95;;;19.70;73.20;;;;;;5087432;28;20032;-60
2022/10/16 09:57:53;;;;;;;5.70;1.90;;;19.70;73.10;;;;;;5069633;28;20033;-60
2022/10/16 10:00:20;;;;;;;4.82;2.72;;;19.80;73.00;;;;;;5087601;28;20039;-62
2022/10/16 10:02:46;;;;;;;5.80;1.90;;;19.90;73.30;;;;;;5087435;28;20044;-61
2022/10/16 10:05:30;;;;;;;6.70;3.50;;;20.00;73.40;;;;;;5087610;28;20456;-60
2022/10/16 10:07:57;;;;;;;7.85;2.58;;;20.20;73.00;;;;;;5087384;28;20027;-60
2022/10/16 10:10:27;;;;;;;4.38;2.40;;;20.30;73.60;;;;;;5086379;28;20032;-60
2022/10/16 10:12:55;;;;;;;3.22;1.85;;;20.60;73.30;;;;;;5086986;28;20016;-61
2022/10/16 10:15:23;;;;;;;4.63;1.98;;;20.80;73.10;;;;;;5069303;28;20049;-60
2022/10/16 10:17:54;;;;;;;3.72;1.80;;;21.00;72.30;;;;;;5087203;28;20028;-60
2022/10/16 10:20:34;;;;;;;1.70;1.23;;;21.20;71.20;;;;;;5087084;28;20020;-60
2022/10/16 10:23:18;;;;;;;4.85;1.60;;;21.40;69.80;;;;;;5087092;28;20343;-60
2022/10/16 10:26:17;;;;;;;2.70;1.42;;;21.50;69.70;;;;;;5087070;28;20025;-59
2022/10/16 10:28:47;;;;;;;6.18;1.60;;;21.50;68.20;;;;;;5078570;28;20526;-60
2022/10/16 10:31:33;;;;;;;2.75;1.23;;;21.60;68.30;;;;;;5086915;28;20017;-59
2022/10/16 10:34:09;;;;;;;2.15;1.17;;;21.60;67.30;;;;;;5086293;28;20067;-61
2022/10/16 10:36:40;;;;;;;1.83;1.38;;;21.60;68.40;;;;;;5087015;28;20040;-60
2022/10/16 10:39:13;;;;;;;1.80;1.10;;;21.60;68.30;;;;;;5086748;28;20047;-61
2022/10/16 10:42:05;;;;;;;2.28;1.10;;;21.60;68.30;;;;;;5086586;28;20063;-61
2022/10/16 10:44:52;;;;;;;7.15;1.48;;;21.60;67.80;;;;;;5048805;28;20066;-59
2022/10/16 10:47:17;;;;;;;5.53;3.40;;;21.70;67.80;;;;;;5068550;28;20032;-62
2022/10/16 10:50:03;;;;;;;7.10;3.80;;;21.70;68.50;;;;;;5086439;28;20021;-60
2022/10/16 10:52:36;;;;;;;9.27;4.97;;;21.80;67.00;;;;;;5045079;28;20509;-59
2022/10/16 10:55:39;;;;;;;4.72;2.83;;;21.80;67.70;;;;;;5086399;28;20032;-59
2022/10/16 10:58:20;;;;;;;3.45;2.17;;;21.80;66.80;;;;;;5068485;28;20116;-59
2022/10/16 11:01:26;;;;;;;8.57;1.75;;;21.90;66.80;;;;;;5086549;28;20028;-60
2022/10/16 11:04:15;;;;;;;5.15;1.52;;;21.90;66.60;;;;;;5086493;28;20050;-60
2022/10/16 11:06:50;;;;;;;2.38;1.00;;;21.90;67.00;;;;;;5086222;28;20052;-61
2022/10/16 11:09:27;;;;;;;2.40;2.00;;;22.00;66.80;;;;;;5068654;28;20037;-60
2022/10/16 11:12:17;;;;;;;4.32;2.40;;;22.00;67.10;;;;;;5086446;28;20047;-59
2022/10/16 11:15:13;;;;;;;2.67;1.95;;;22.10;66.60;;;;;;5086074;28;20025;-60
2022/10/16 11:17:46;;;;;;;1.85;1.17;;;22.20;66.30;;;;;;5086008;28;20029;-59
2022/10/16 11:20:14;;;;;;;6.25;1.20;;;22.20;66.20;;;;;;5086211;28;20059;-61
2022/10/16 11:22:46;;;;;;;4.63;1.10;;;22.20;66.20;;;;;;5086003;28;20094;-60
2022/10/16 11:25:27;;;;;;;2.75;1.05;;;22.20;66.00;;;;;;5085934;28;20060;-60
2022/10/16 11:28:07;;;;;;;3.92;1.20;;;22.20;66.20;;;;;;5085960;28;20086;-60
2022/10/16 11:31:02;;;;;;;3.30;1.08;;;22.20;66.70;;;;;;5068819;28;20063;-60
2022/10/16 11:33:39;;;;;;;1.67;1.10;;;22.30;66.70;;;;;;5086333;28;20032;-60
2022/10/16 11:36:23;;;;;;;7.57;1.08;;;22.30;67.10;;;;;;5085810;28;20042;-61
2022/10/16 11:38:57;;;;;;;2.03;1.42;;;22.40;66.80;;;;;;5085944;28;20054;-60
2022/10/16 11:41:28;;;;;;;3.28;1.17;;;22.40;66.60;;;;;;5086099;28;20126;-60
2022/10/16 11:44:25;;;;;;;11.45;1.20;;;22.60;67.00;;;;;;5085708;28;20068;-60
2022/10/16 11:47:02;;;;;;;1.83;1.13;;;22.70;66.70;;;;;;5086126;28;20032;-60
2022/10/16 11:49:32;;;;;;;2.03;1.08;;;22.90;66.20;;;;;;5085770;28;20028;-61
2022/10/16 11:52:28;;;;;;;4.10;1.10;;;23.00;66.60;;;;;;5085557;28;20102;-62
2022/10/16 11:55:17;;;;;;;3.10;1.25;;;23.20;65.20;;;;;;5067426;28;20082;-60
2022/10/16 11:57:51;;;;;;;1.73;0.80;;;23.40;65.70;;;;;;5086006;28;20070;-60
2022/10/16 12:00:35;;;;;;;;;;;23.60;64.00;;;;;;5086104;28;20029;-60
2022/10/16 12:03:32;;;;;;;1.65;0.90;;;23.70;64.00;;;;;;5085666;28;19991;-59
2022/10/16 12:06:27;;;;;;;2.45;1.00;;;23.90;63.30;;;;;;5003734;28;20078;-59
2022/10/16 12:08:53;;;;;;;;;;;23.90;63.10;;;;;;4984713;28;20118;-61
2022/10/16 12:11:28;;;;;;;1.52;0.98;;;24.10;63.90;;;;;;4984369;28;20000;-61
2022/10/16 12:14:12;;;;;;;1.35;0.88;;;24.20;62.90;;;;;;4984533;28;20039;-60
2022/10/16 12:17:02;;;;;;;10.70;1.17;;;24.20;62.60;;;;;;4984657;28;20078;-60
2022/10/16 12:19:30;;;;;;;1.65;0.88;;;24.40;62.60;;;;;;4984330;28;20079;-60
2022/10/16 12:21:58;;;;;;;1.50;0.90;;;24.50;62.50;;;;;;4984209;28;20046;-60
2022/10/16 12:24:42;;;;;;;1.48;0.75;;;24.70;61.90;;;;;;4984242;28;20101;-59
2022/10/16 12:27:30;;;;;;;2.57;1.00;;;24.80;60.10;;;;;;4984006;28;20043;-60
2022/10/16 12:30:01;;;;;;;1.17;0.93;;;24.90;60.50;;;;;;4984729;28;20122;-60
2022/10/16 12:32:40;;;;;;;4.45;1.42;;;25.00;59.20;;;;;;4985367;28;20066;-59
2022/10/16 12:35:21;;;;;;;1.50;0.70;;;25.00;58.80;;;;;;4988216;28;20102;-62
2022/10/16 12:37:47;;;;;;;1.38;0.70;;;25.00;58.50;;;;;;4987696;28;20461;-61
2022/10/16 12:40:27;;;;;;;1.20;0.93;;;25.00;58.80;;;;;;4987694;28;20034;-59
2022/10/16 12:42:53;;;;;;;4.47;1.00;;;25.00;58.50;;;;;;5014765;28;20029;-60
2022/10/16 12:45:31;;;;;;;4.47;0.90;;;24.90;59.60;;;;;;5068380;28;20041;-60
2022/10/16 12:47:58;;;;;;;4.78;0.90;;;25.00;59.40;;;;;;5089028;28;20031;-61
2022/10/16 12:50:35;;;;;;;4.00;0.77;;;25.10;59.70;;;;;;5089235;28;20051;-62
2022/10/16 12:53:03;;;;;;;1.10;1.00;;;25.20;59.40;;;;;;5088502;28;20048;-61
2022/10/16 12:55:50;;;;;;;0.80;0.73;;;25.30;59.20;;;;;;5088660;28;20084;-60
2022/10/16 12:58:39;;;;;;;4.93;0.75;;;25.40;58.30;;;;;;5088721;28;20062;-60
2022/10/16 13:01:22;;;;;;;3.92;1.23;;;25.50;57.80;;;;;;5088088;28;20157;-60
2022/10/16 13:04:02;;;;;;;1.42;0.80;;;25.40;57.00;;;;;;5089047;28;20029;-59
2022/10/16 13:06:49;;;;;;;1.48;0.77;;;25.70;58.20;;;;;;5088740;28;20020;-60
2022/10/16 13:09:27;;;;;;;3.83;1.17;;;25.80;58.00;;;;;;5070571;28;20029;-59
2022/10/16 13:12:27;;;;;;;6.40;0.77;;;25.80;56.90;;;;;;5089033;28;20028;-59